Time;durP1;ratioP1;P1;durP2;ratioP2;P2;SDS_P1;SDS_P2;PMS_P1;PMS_P2;Temp;Humidity;BMP_temperature;BMP_pressure;BME280_temperature;BME280_humidity;BME280_pressure;Samples;Min_cycle;Max_cycle;Signal;HPM_P1;HPM_P2
2022/04/23 03:01:28;;;;;;;1.43;1.43;;;12.30;75.30;;;;;;5721360;23;20507;-75
2022/04/23 03:03:58;;;;;;;1.40;1.40;;;12.20;75.20;;;;;;5014191;28;20666;-75
2022/04/23 03:06:28;;;;;;;1.63;1.63;;;12.20;75.50;;;;;;5015082;28;20908;-75
2022/04/23 03:08:55;;;;;;;1.80;1.70;;;12.20;75.60;;;;;;5015446;28;20791;-73
2022/04/23 03:11:22;;;;;;;1.43;1.43;;;12.30;75.30;;;;;;5015207;28;20975;-73
2022/04/23 03:13:50;;;;;;;1.80;1.70;;;12.30;75.00;;;;;;5115921;23;20998;-73
2022/04/23 03:16:17;;;;;;;1.63;1.57;;;12.40;75.00;;;;;;5012918;28;20448;-73
2022/04/23 03:18:45;;;;;;;1.50;1.50;;;12.40;74.70;;;;;;5012875;28;20526;-73
2022/04/23 03:21:12;;;;;;;1.57;1.57;;;12.40;74.50;;;;;;5014678;28;20494;-73
2022/04/23 03:23:38;;;;;;;1.60;1.50;;;12.40;74.50;;;;;;5016776;28;20472;-73
2022/04/23 03:26:05;;;;;;;1.50;1.50;;;12.50;74.50;;;;;;5016739;28;20456;-74
2022/04/23 03:28:32;;;;;;;1.63;1.60;;;12.50;73.90;;;;;;5016770;28;20464;-73
2022/04/23 03:30:58;;;;;;;1.20;1.20;;;12.40;73.80;;;;;;5016371;28;20820;-73
2022/04/23 03:33:25;;;;;;;1.50;1.40;;;12.40;74.00;;;;;;5016384;28;20998;-73
2022/04/23 03:35:53;;;;;;;1.63;1.57;;;12.50;73.60;;;;;;5016586;28;20448;-74
2022/04/23 03:38:20;;;;;;;1.67;1.57;;;12.50;73.40;;;;;;5016276;28;21020;-74
2022/04/23 03:40:53;;;;;;;1.30;1.30;;;12.50;73.50;;;;;;5016477;28;20456;-73
2022/04/23 03:43:20;;;;;;;1.70;1.60;;;12.40;73.90;;;;;;5016443;28;20472;-73
2022/04/23 03:45:47;;;;;;;1.30;1.30;;;12.40;74.00;;;;;;5016387;28;20444;-74
2022/04/23 03:48:14;;;;;;;1.60;1.50;;;12.40;74.00;;;;;;5016479;28;20510;-74
2022/04/23 03:50:40;;;;;;;1.70;1.60;;;12.40;74.10;;;;;;5016314;28;20444;-73
2022/04/23 03:53:09;;;;;;;1.40;1.40;;;12.40;74.20;;;;;;5016318;28;20549;-73
2022/04/23 03:55:36;;;;;;;1.30;1.30;;;12.40;74.20;;;;;;5016428;28;20579;-73
2022/04/23 03:58:02;;;;;;;1.50;1.50;;;12.30;74.50;;;;;;5016229;28;20444;-73
2022/04/23 04:00:30;;;;;;;1.37;1.37;;;12.20;74.70;;;;;;5016166;28;20456;-73
2022/04/23 04:02:57;;;;;;;1.60;1.53;;;12.20;74.80;;;;;;5016422;28;20520;-73
2022/04/23 04:05:25;;;;;;;1.50;1.50;;;12.10;75.30;;;;;;5016060;28;20455;-73
2022/04/23 04:07:53;;;;;;;1.37;1.30;;;12.10;75.50;;;;;;5016007;28;20870;-73
2022/04/23 04:10:23;;;;;;;1.40;1.30;;;12.10;75.60;;;;;;5016058;28;20440;-73
2022/04/23 04:12:51;;;;;;;1.20;1.20;;;12.00;75.80;;;;;;5015915;28;20448;-73
2022/04/23 04:15:20;;;;;;;1.50;1.40;;;11.90;76.30;;;;;;5015570;28;20911;-73
2022/04/23 04:17:49;;;;;;;1.37;1.37;;;12.00;76.10;;;;;;5015607;28;20936;-73
2022/04/23 04:20:16;;;;;;;1.40;1.30;;;12.10;76.00;;;;;;5017770;28;20484;-73
2022/04/23 04:22:44;;;;;;;1.40;1.40;;;12.10;76.00;;;;;;5018120;28;20487;-73
2022/04/23 04:25:13;;;;;;;1.27;1.27;;;12.10;76.00;;;;;;5018118;28;20456;-73
2022/04/23 04:27:41;;;;;;;1.80;1.70;;;12.10;76.00;;;;;;5017888;28;20457;-76
2022/04/23 04:30:09;;;;;;;1.50;1.40;;;12.20;75.80;;;;;;5017799;28;20444;-74
2022/04/23 04:32:36;;;;;;;1.20;1.20;;;12.20;75.60;;;;;;5016224;28;20452;-73
2022/04/23 04:35:03;;;;;;;1.70;1.70;;;12.20;75.50;;;;;;5017812;28;20468;-74
2022/04/23 04:37:30;;;;;;;1.40;1.30;;;12.20;75.40;;;;;;5018162;28;20455;-73
2022/04/23 04:39:57;;;;;;;1.30;1.30;;;12.30;75.40;;;;;;5015093;28;20476;-73
2022/04/23 04:42:23;;;;;;;1.20;1.20;;;12.30;75.20;;;;;;5015230;28;20448;-73
2022/04/23 04:44:51;;;;;;;1.30;1.30;;;12.40;75.00;;;;;;5015149;28;20468;-73
2022/04/23 04:47:18;;;;;;;1.43;1.43;;;12.40;75.00;;;;;;5014555;28;20975;-73
2022/04/23 04:49:45;;;;;;;1.37;1.37;;;12.40;75.00;;;;;;5015171;28;20491;-73
2022/04/23 04:52:12;;;;;;;1.73;1.60;;;12.40;74.90;;;;;;5015512;28;20468;-72
2022/04/23 04:54:39;;;;;;;1.50;1.50;;;12.00;76.30;;;;;;5015031;28;20468;-73
2022/04/23 04:57:05;;;;;;;1.60;1.53;;;12.10;76.50;;;;;;5014830;28;20448;-73
2022/04/23 04:59:32;;;;;;;1.30;1.30;;;12.10;76.50;;;;;;5016407;28;20480;-73
2022/04/23 05:02:01;;;;;;;1.60;1.53;;;12.10;76.40;;;;;;5015374;28;20482;-75
2022/04/23 05:04:28;;;;;;;1.50;1.50;;;12.20;76.30;;;;;;5014762;28;20983;-73
2022/04/23 05:06:55;;;;;;;1.63;1.57;;;12.20;76.20;;;;;;5015909;28;20515;-72
2022/04/23 05:09:22;;;;;;;1.30;1.30;;;12.20;76.50;;;;;;5015156;28;20441;-73
2022/04/23 05:11:48;;;;;;;1.50;1.50;;;12.10;76.90;;;;;;5014793;28;20448;-73
2022/04/23 05:14:16;;;;;;;1.43;1.43;;;11.70;78.10;;;;;;5014695;28;20515;-73
2022/04/23 05:16:43;;;;;;;1.40;1.30;;;11.60;78.60;;;;;;5014680;28;20460;-73
2022/04/23 05:19:11;;;;;;;1.60;1.50;;;11.60;79.00;;;;;;5014658;28;20479;-73
2022/04/23 05:21:38;;;;;;;1.53;1.47;;;11.50;79.10;;;;;;5015072;28;20506;-73
2022/04/23 05:24:06;;;;;;;1.43;1.33;;;11.40;79.20;;;;;;5014745;28;20471;-73
2022/04/23 05:26:34;;;;;;;1.40;1.40;;;11.20;80.50;;;;;;5014364;28;20998;-73
2022/04/23 05:29:01;;;;;;;1.93;1.83;;;10.90;80.90;;;;;;5014299;28;20455;-73
2022/04/23 05:31:27;;;;;;;1.80;1.70;;;10.90;81.60;;;;;;5015115;28;20448;-73
2022/04/23 05:33:54;;;;;;;2.00;1.90;;;10.80;81.80;;;;;;5014993;28;20583;-73
2022/04/23 05:36:22;;;;;;;1.40;1.40;;;10.70;82.90;;;;;;5014319;28;20449;-73
2022/04/23 05:38:49;;;;;;;1.30;1.30;;;10.70;82.60;;;;;;5014176;28;20806;-73
2022/04/23 05:41:16;;;;;;;1.67;1.60;;;10.70;82.60;;;;;;5013934;28;20958;-71
2022/04/23 05:43:43;;;;;;;1.63;1.53;;;10.80;82.70;;;;;;5013835;28;20476;-73
2022/04/23 05:46:09;;;;;;;1.70;1.60;;;10.70;82.50;;;;;;5013821;28;20869;-73
2022/04/23 05:48:37;;;;;;;1.50;1.47;;;10.70;83.10;;;;;;5014045;28;20453;-73
2022/04/23 05:51:05;;;;;;;1.77;1.70;;;10.70;82.80;;;;;;5014117;28;20530;-73
2022/04/23 05:53:33;;;;;;;1.40;1.40;;;10.70;83.10;;;;;;5013875;28;20467;-73
2022/04/23 05:55:59;;;;;;;1.30;1.30;;;10.70;82.80;;;;;;5013860;28;20456;-73
2022/04/23 05:58:26;;;;;;;1.60;1.50;;;10.90;82.90;;;;;;5014438;28;20456;-73
2022/04/23 06:00:53;;;;;;;1.50;1.50;;;10.80;82.10;;;;;;5013856;28;20634;-72
2022/04/23 06:03:20;;;;;;;1.40;1.40;;;10.70;82.50;;;;;;5013708;28;20515;-73
2022/04/23 06:05:47;;;;;;;1.43;1.43;;;10.70;82.50;;;;;;5013758;28;20455;-72
2022/04/23 06:08:13;;;;;;;1.47;1.37;;;10.70;82.60;;;;;;5013370;28;20518;-73
2022/04/23 06:10:41;;;;;;;1.50;1.50;;;10.80;82.40;;;;;;5013537;28;20450;-73
2022/04/23 06:13:08;;;;;;;1.47;1.37;;;10.70;82.00;;;;;;5013381;28;20480;-73
2022/04/23 06:15:35;;;;;;;1.60;1.50;;;10.70;82.10;;;;;;5013558;28;20447;-73
2022/04/23 06:18:02;;;;;;;1.60;1.50;;;10.70;82.40;;;;;;5013683;28;20869;-72
2022/04/23 06:20:29;;;;;;;1.10;1.10;;;10.70;82.40;;;;;;5013705;28;20483;-73
2022/04/23 06:22:55;;;;;;;1.23;1.23;;;10.80;82.00;;;;;;5012394;28;20511;-72
2022/04/23 06:25:22;;;;;;;1.60;1.50;;;10.80;82.00;;;;;;5013445;28;20444;-73
2022/04/23 06:27:51;;;;;;;1.33;1.33;;;10.70;82.10;;;;;;5013875;28;20455;-73
2022/04/23 06:30:17;;;;;;;1.30;1.30;;;10.60;82.40;;;;;;5014008;28;20468;-72
2022/04/23 06:32:45;;;;;;;1.33;1.33;;;10.60;82.70;;;;;;5013941;28;20444;-73
2022/04/23 06:35:11;;;;;;;1.60;1.50;;;10.60;83.00;;;;;;5013776;28;20497;-72
2022/04/23 06:37:40;;;;;;;1.87;1.77;;;10.60;82.70;;;;;;5013020;28;20452;-73
2022/04/23 06:40:08;;;;;;;1.70;1.60;;;10.70;82.40;;;;;;5013217;28;20506;-73
2022/04/23 06:42:35;;;;;;;1.40;1.40;;;10.70;81.90;;;;;;5013318;28;20456;-73
2022/04/23 06:45:03;;;;;;;1.30;1.30;;;10.50;81.90;;;;;;5013091;28;20472;-73
2022/04/23 06:47:29;;;;;;;1.57;1.50;;;10.50;82.60;;;;;;5012760;28;20939;-72
2022/04/23 06:49:58;;;;;;;1.40;1.40;;;10.60;82.40;;;;;;5012952;28;20452;-73
2022/04/23 06:52:25;;;;;;;1.43;1.43;;;10.60;81.90;;;;;;5013197;28;20565;-73
2022/04/23 06:54:54;;;;;;;1.50;1.50;;;10.70;81.70;;;;;;5012564;28;20526;-73
2022/04/23 06:57:22;;;;;;;1.40;1.40;;;10.80;81.60;;;;;;5014272;28;20486;-72
2022/04/23 06:59:49;;;;;;;1.63;1.53;;;10.80;80.90;;;;;;5012975;28;20507;-73
2022/04/23 07:02:17;;;;;;;1.13;1.13;;;10.80;80.50;;;;;;5012628;28;20452;-73
2022/04/23 07:04:44;;;;;;;1.50;1.50;;;10.70;80.60;;;;;;5012837;28;20472;-72
2022/04/23 07:07:11;;;;;;;1.60;1.50;;;10.60;81.30;;;;;;5013003;28;20523;-72
2022/04/23 07:09:38;;;;;;;1.80;1.37;;;10.80;80.90;;;;;;5012675;28;20943;-73
2022/04/23 07:12:06;;;;;;;1.37;1.27;;;10.70;80.90;;;;;;5012820;28;20448;-73
2022/04/23 07:14:33;;;;;;;1.20;1.20;;;10.60;80.80;;;;;;5012429;28;20511;-73
2022/04/23 07:16:59;;;;;;;1.30;1.30;;;10.60;80.90;;;;;;5012534;28;20891;-72
2022/04/23 07:19:27;;;;;;;1.33;1.33;;;10.60;81.20;;;;;;5012741;28;20491;-73
2022/04/23 07:21:54;;;;;;;1.20;1.20;;;10.70;80.80;;;;;;5012411;28;20931;-73
2022/04/23 07:24:20;;;;;;;1.60;1.50;;;10.70;80.80;;;;;;5013277;28;21015;-73
2022/04/23 07:26:47;;;;;;;1.27;1.27;;;10.70;81.00;;;;;;5013067;28;20448;-73
2022/04/23 07:29:14;;;;;;;1.13;1.13;;;10.80;80.40;;;;;;5013017;28;20444;-73
2022/04/23 07:31:41;;;;;;;1.30;1.30;;;10.70;80.20;;;;;;5012825;28;20452;-73
2022/04/23 07:39:37;;;;;;;1.27;1.27;;;10.70;80.50;;;;;;5012735;28;20918;-73
2022/04/23 07:42:06;;;;;;;1.10;1.10;;;10.70;80.20;;;;;;5012710;28;20452;-73
2022/04/23 07:44:32;;;;;;;1.33;1.33;;;10.80;80.20;;;;;;5012358;28;20899;-73
2022/04/23 07:46:59;;;;;;;1.33;1.33;;;10.80;80.10;;;;;;5012559;28;20452;-73
2022/04/23 07:49:26;;;;;;;1.13;1.13;;;10.90;79.90;;;;;;5012765;28;20452;-72
2022/04/23 07:51:54;;;;;;;1.00;1.00;;;11.00;79.50;;;;;;5012562;28;20448;-73
2022/04/23 07:54:20;;;;;;;1.17;1.17;;;11.30;78.90;;;;;;5012224;28;20615;-72
2022/04/23 07:56:47;;;;;;;1.40;1.40;;;11.20;78.60;;;;;;5012232;28;20511;-73
2022/04/23 07:59:14;;;;;;;1.03;1.03;;;11.30;78.80;;;;;;5012821;28;20514;-73
2022/04/23 08:01:41;;;;;;;1.30;1.30;;;11.20;78.80;;;;;;5012432;28;20460;-73
2022/04/23 08:04:08;;;;;;;1.23;1.23;;;11.40;78.90;;;;;;5012533;28;20488;-73
2022/04/23 08:06:35;;;;;;;1.20;1.20;;;11.30;78.00;;;;;;5012896;28;20502;-73
2022/04/23 08:09:03;;;;;;;1.00;1.00;;;11.20;78.60;;;;;;5016049;28;20452;-73
2022/04/23 08:11:30;;;;;;;0.90;0.90;;;11.20;78.50;;;;;;5015880;28;20448;-73
2022/04/23 08:13:57;;;;;;;1.20;1.20;;;11.20;78.40;;;;;;5015886;28;20480;-73
2022/04/23 08:16:26;;;;;;;1.20;1.20;;;11.10;78.70;;;;;;5015966;28;20483;-73
2022/04/23 08:18:53;;;;;;;1.30;1.30;;;11.00;78.70;;;;;;5015793;28;20539;-73
2022/04/23 08:21:20;;;;;;;1.20;1.20;;;11.10;78.80;;;;;;5015696;28;20484;-73
2022/04/23 08:23:46;;;;;;;1.40;1.40;;;11.30;78.50;;;;;;5015642;28;20463;-72
2022/04/23 08:26:15;;;;;;;1.20;1.20;;;11.50;78.20;;;;;;5015540;28;20494;-73
2022/04/23 08:31:25;;;;;;;1.50;1.47;;;11.50;76.90;;;;;;5015684;28;20400;-73
2022/04/23 08:34:01;;;;;;;1.30;1.20;;;11.50;77.70;;;;;;5015512;28;20483;-74
2022/04/23 08:36:35;;;;;;;1.23;1.17;;;11.50;77.60;;;;;;5015416;28;20472;-74
2022/04/23 08:39:02;;;;;;;1.13;1.13;;;11.80;77.80;;;;;;5016481;28;20440;-73
2022/04/23 08:41:30;;;;;;;1.17;1.17;;;11.90;76.70;;;;;;5015519;28;20507;-74
2022/04/23 08:43:58;;;;;;;1.40;1.40;;;11.90;76.80;;;;;;5015526;28;20472;-73
2022/04/23 08:46:26;;;;;;;1.30;1.30;;;11.80;76.60;;;;;;5015199;28;20456;-74
2022/04/23 08:49:08;;;;;;;1.50;1.30;;;11.70;76.50;;;;;;5014974;28;21033;-76
2022/04/23 08:51:36;;;;;;;1.27;1.27;;;11.70;76.80;;;;;;5016685;28;20457;-72
2022/04/23 08:54:07;;;;;;;1.47;1.47;;;11.80;77.20;;;;;;5014979;28;20884;-73
2022/04/23 08:56:37;;;;;;;1.27;1.27;;;11.80;76.60;;;;;;5014731;28;20876;-73
2022/04/23 08:59:06;;;;;;;1.20;1.20;;;11.70;76.60;;;;;;5015075;28;20916;-72
2022/04/23 09:01:33;;;;;;;1.30;1.30;;;11.80;76.70;;;;;;5014935;28;20491;-73
2022/04/23 09:04:01;;;;;;;1.70;1.60;;;11.80;75.90;;;;;;5014502;28;20974;-73
2022/04/23 09:06:44;;;;;;;1.23;1.23;;;11.90;76.40;;;;;;5014638;28;20948;-73
2022/04/23 09:09:14;;;;;;;1.17;1.17;;;12.10;75.40;;;;;;5013454;28;20566;-73
2022/04/23 09:11:44;;;;;;;1.20;1.20;;;12.20;75.70;;;;;;5014875;28;20437;-74
2022/04/23 09:14:27;;;;;;;1.20;1.20;;;12.20;75.50;;;;;;5131945;23;20488;-75
2022/04/23 09:25:16;;;;;;;1.00;1.00;;;12.30;75.00;;;;;;5015107;28;20888;-77
2022/04/23 09:27:45;;;;;;;1.30;1.30;;;12.30;74.80;;;;;;5015227;28;20535;-76
2022/04/23 09:30:12;;;;;;;1.40;1.40;;;12.30;75.20;;;;;;5016030;28;20449;-77
2022/04/23 09:32:56;;;;;;;1.20;1.10;;;12.30;74.80;;;;;;5015105;28;20891;-77
2022/04/23 09:35:23;;;;;;;1.20;1.20;;;12.10;74.70;;;;;;5015427;28;20555;-77
2022/04/23 09:40:34;;;;;;;1.27;1.27;;;11.90;75.50;;;;;;5015397;28;20838;-74
2022/04/23 09:43:05;;;;;;;1.60;1.50;;;11.90;75.80;;;;;;5015112;28;20458;-81
2022/04/23 09:45:32;;;;;;;1.17;1.17;;;11.90;75.90;;;;;;5016413;28;20472;-78
2022/04/23 09:48:15;;;;;;;1.00;1.00;;;12.10;75.40;;;;;;5015160;28;20436;-77
2022/04/23 09:50:44;;;;;;;0.90;0.90;;;12.30;75.00;;;;;;5014838;28;20516;-73
2022/04/23 09:53:12;;;;;;;1.00;1.00;;;12.50;74.50;;;;;;5014479;28;20448;-74
2022/04/23 09:55:39;;;;;;;1.10;1.10;;;12.50;74.10;;;;;;5014604;28;20444;-75
2022/04/23 09:58:09;;;;;;;1.17;1.17;;;12.50;74.10;;;;;;5014519;28;20448;-75
2022/04/23 10:00:37;;;;;;;1.10;1.10;;;12.40;73.90;;;;;;5014463;28;20480;-77
2022/04/23 10:03:07;;;;;;;0.97;0.97;;;12.30;74.00;;;;;;5014544;28;20535;-76
2022/04/23 10:05:36;;;;;;;1.20;1.20;;;12.50;74.20;;;;;;5014475;28;20560;-76
2022/04/23 10:08:09;;;;;;;1.10;1.10;;;12.40;73.60;;;;;;5014465;28;20452;-75
2022/04/23 10:10:42;;;;;;;1.00;1.00;;;12.30;74.00;;;;;;5014466;28;20433;-75
2022/04/23 10:13:11;;;;;;;1.10;1.10;;;12.40;74.20;;;;;;5018345;28;20429;-77
2022/04/23 10:15:39;;;;;;;1.10;1.10;;;12.50;74.00;;;;;;5014041;28;20460;-76
2022/04/23 10:18:09;;;;;;;1.07;1.07;;;12.60;73.10;;;;;;5014317;28;20859;-77
2022/04/23 10:20:37;;;;;;;1.10;1.00;;;12.80;73.30;;;;;;5014252;28;20472;-76
2022/04/23 10:23:14;;;;;;;1.03;1.03;;;12.90;73.50;;;;;;5014143;28;20543;-76
2022/04/23 10:25:47;;;;;;;1.20;1.20;;;12.90;72.20;;;;;;5014272;28;20502;-75
2022/04/23 10:28:17;;;;;;;1.20;1.20;;;12.80;72.80;;;;;;5013773;28;20926;-76
2022/04/23 10:30:46;;;;;;;1.00;1.00;;;12.90;72.50;;;;;;5013602;28;20942;-76
2022/04/23 10:33:29;;;;;;;1.00;1.00;;;12.90;72.20;;;;;;5013794;28;20471;-76
2022/04/23 10:36:14;;;;;;;1.13;1.13;;;12.80;72.90;;;;;;5014204;28;20447;-76
2022/04/23 10:38:45;;;;;;;1.10;1.10;;;12.90;72.80;;;;;;5014008;28;20528;-77
2022/04/23 10:41:14;;;;;;;1.00;1.00;;;12.70;73.10;;;;;;5013793;28;20471;-76
2022/04/23 10:43:49;;;;;;;1.40;1.30;;;12.80;72.80;;;;;;5013282;28;20982;-76
2022/04/23 10:46:44;;;;;;;1.27;1.27;;;13.00;73.30;;;;;;5013705;28;20831;-74
2022/04/23 10:49:14;;;;;;;1.20;1.20;;;13.00;72.60;;;;;;5013671;28;20503;-76
2022/04/23 10:51:48;;;;;;;1.20;1.20;;;13.00;72.70;;;;;;5013679;28;20530;-75
2022/04/23 10:54:18;;;;;;;1.00;1.00;;;13.20;72.30;;;;;;5013548;28;20478;-75
2022/04/23 10:56:49;;;;;;;1.20;1.20;;;13.20;71.90;;;;;;5013613;28;20531;-75
2022/04/23 10:59:38;;;;;;;1.23;1.23;;;13.20;71.90;;;;;;5013639;28;20443;-74
2022/04/23 11:02:07;;;;;;;1.30;1.30;;;13.10;72.60;;;;;;5013714;28;20557;-77
2022/04/23 11:04:34;;;;;;;1.00;1.00;;;13.30;72.40;;;;;;5014028;28;20468;-77
2022/04/23 11:12:37;;;;;;;1.20;1.20;;;13.50;72.00;;;;;;5023346;28;20480;-77
2022/04/23 11:15:15;;;;;;;1.40;1.30;;;13.50;71.80;;;;;;5022893;28;20498;-78
2022/04/23 11:17:56;;;;;;;1.10;1.10;;;13.40;71.20;;;;;;5024157;28;20452;-78
2022/04/23 11:20:34;;;;;;;1.10;1.10;;;13.40;71.90;;;;;;5024883;28;20432;-77
2022/04/23 11:23:03;;;;;;;1.30;1.30;;;13.40;72.00;;;;;;5023277;28;20451;-78
2022/04/23 11:25:31;;;;;;;1.20;1.20;;;13.40;72.20;;;;;;5024431;28;20472;-79
2022/04/23 11:28:13;;;;;;;1.20;1.20;;;13.40;71.40;;;;;;5023493;28;20507;-78
2022/04/23 11:30:41;;;;;;;1.33;1.33;;;13.40;71.10;;;;;;5022965;28;20413;-79
2022/04/23 11:33:12;;;;;;;1.10;1.10;;;13.40;71.40;;;;;;5023335;28;20463;-78
2022/04/23 11:35:39;;;;;;;1.30;1.20;;;13.40;72.00;;;;;;5025226;28;20448;-79
2022/04/23 11:38:06;;;;;;;1.20;1.20;;;13.60;71.50;;;;;;5025250;28;20444;-79
2022/04/23 11:40:35;;;;;;;1.23;1.20;;;13.70;71.00;;;;;;5026685;28;20455;-79
2022/04/23 11:43:03;;;;;;;1.17;1.17;;;13.70;70.70;;;;;;5029135;28;20436;-79
2022/04/23 11:45:30;;;;;;;1.20;1.20;;;13.80;70.90;;;;;;5029056;28;20489;-79
2022/04/23 11:47:58;;;;;;;1.10;1.10;;;13.80;71.00;;;;;;5028747;28;20451;-79
2022/04/23 11:50:29;;;;;;;1.00;1.00;;;13.90;70.80;;;;;;5028459;28;20448;-79
2022/04/23 11:53:00;;;;;;;1.10;1.10;;;13.90;70.40;;;;;;5028789;28;20452;-79
2022/04/23 11:55:29;;;;;;;1.63;1.57;;;14.00;70.00;;;;;;5028546;28;20543;-78
2022/04/23 11:57:57;;;;;;;1.00;1.00;;;14.10;70.60;;;;;;5029072;28;20450;-79
2022/04/23 12:00:25;;;;;;;1.33;1.23;;;14.30;70.50;;;;;;5029058;28;20448;-79
2022/04/23 12:02:53;;;;;;;1.10;1.10;;;14.50;69.40;;;;;;5029159;28;20512;-79
2022/04/23 12:05:25;;;;;;;1.20;1.20;;;14.40;68.90;;;;;;5028617;28;20468;-79
2022/04/23 12:07:52;;;;;;;1.20;1.20;;;14.40;69.10;;;;;;5027999;28;20478;-78
2022/04/23 12:10:24;;;;;;;1.30;1.20;;;14.60;69.00;;;;;;5028722;28;20935;-79
2022/04/23 12:12:51;;;;;;;0.90;0.90;;;14.80;68.50;;;;;;5028049;28;20923;-80
2022/04/23 12:15:21;;;;;;;1.10;1.10;;;14.70;68.80;;;;;;5026318;28;20479;-79
2022/04/23 12:17:49;;;;;;;1.23;1.23;;;14.70;68.90;;;;;;5026408;28;20474;-80
2022/04/23 12:20:19;;;;;;;1.10;1.03;;;14.70;68.30;;;;;;5026641;28;20444;-78
2022/04/23 12:22:58;;;;;;;1.10;1.10;;;14.60;68.60;;;;;;5026636;28;20488;-80
2022/04/23 12:25:27;;;;;;;1.00;1.00;;;14.70;69.40;;;;;;5024876;28;20468;-78
2022/04/23 12:27:58;;;;;;;0.97;0.97;;;14.80;68.30;;;;;;5022362;28;20451;-77
2022/04/23 12:41:41;;;;;;;0.90;0.90;;;14.80;67.90;;;;;;5016840;28;20830;-78
2022/04/23 12:44:19;;;;;;;1.00;1.00;;;14.70;68.30;;;;;;5016791;28;20551;-79
2022/04/23 12:47:04;;;;;;;1.13;0.93;;;14.70;68.50;;;;;;5016987;28;20435;-78
2022/04/23 12:49:47;;;;;;;1.10;1.10;;;14.70;68.30;;;;;;5017282;28;20432;-79
2022/04/23 12:52:16;;;;;;;1.00;1.00;;;14.90;68.40;;;;;;5015243;28;20452;-79
2022/04/23 12:55:15;;;;;;;1.13;1.10;;;14.70;68.00;;;;;;5015104;28;20470;-77
2022/04/23 12:57:42;;;;;;;0.90;0.90;;;14.80;68.70;;;;;;5015958;28;20480;-78
2022/04/23 13:00:11;;;;;;;0.83;0.83;;;14.70;68.00;;;;;;5015703;28;20867;-78
2022/04/23 13:02:38;;;;;;;1.00;1.00;;;14.50;68.70;;;;;;5015909;28;20523;-77
2022/04/23 13:05:07;;;;;;;1.00;1.00;;;14.50;68.50;;;;;;5016822;28;20472;-78
2022/04/23 13:10:21;;;;;;;1.30;1.30;;;14.60;70.10;;;;;;5015811;28;20408;-78
2022/04/23 13:12:48;;;;;;;1.00;1.00;;;14.50;69.20;;;;;;5015503;28;20498;-78
2022/04/23 13:15:15;;;;;;;1.10;1.10;;;14.50;69.50;;;;;;5014979;28;20503;-78
2022/04/23 13:17:42;;;;;;;1.00;1.00;;;14.50;69.80;;;;;;5015525;28;20467;-77
2022/04/23 13:20:11;;;;;;;1.23;1.13;;;14.50;69.30;;;;;;5015321;28;20510;-76
2022/04/23 13:22:39;;;;;;;1.37;1.27;;;14.50;69.30;;;;;;5015021;28;20486;-76
2022/04/23 13:25:07;;;;;;;1.00;1.00;;;14.60;69.30;;;;;;5014908;28;20537;-76
2022/04/23 13:27:35;;;;;;;1.10;1.10;;;14.80;68.40;;;;;;5014979;28;20448;-76
2022/04/23 13:30:01;;;;;;;0.90;0.90;;;15.10;69.10;;;;;;5014799;28;20540;-77
2022/04/23 13:32:28;;;;;;;1.03;1.03;;;15.40;67.20;;;;;;5014932;28;20498;-76
2022/04/23 13:34:55;;;;;;;1.00;1.00;;;15.40;66.60;;;;;;5014862;28;20519;-76
2022/04/23 13:37:21;;;;;;;0.90;0.90;;;15.30;67.10;;;;;;5014691;28;20498;-76
2022/04/23 13:39:48;;;;;;;1.03;1.03;;;15.30;67.30;;;;;;5014618;28;20456;-76
2022/04/23 13:42:17;;;;;;;1.03;1.00;;;15.30;67.90;;;;;;5014449;28;20858;-76
2022/04/23 13:44:46;;;;;;;0.90;0.90;;;15.30;67.10;;;;;;5014190;28;20854;-76
2022/04/23 13:47:13;;;;;;;0.90;0.90;;;15.40;67.10;;;;;;5014143;28;20797;-76
2022/04/23 13:49:40;;;;;;;0.90;0.90;;;15.20;67.90;;;;;;5014499;28;20452;-76
2022/04/23 13:52:07;;;;;;;1.20;1.10;;;15.30;67.70;;;;;;5014467;28;21002;-78
2022/04/23 13:54:34;;;;;;;1.20;1.10;;;15.60;67.70;;;;;;5014497;28;20468;-78
2022/04/23 13:57:00;;;;;;;0.83;0.83;;;15.80;66.90;;;;;;5014512;28;20448;-77
2022/04/23 13:59:27;;;;;;;1.13;1.03;;;15.70;66.40;;;;;;5014119;28;20941;-77
2022/04/23 14:10:08;;;;;;;1.00;1.00;;;15.50;68.00;;;;;;5014482;28;20416;-77
2022/04/23 14:12:35;;;;;;;1.83;1.17;;;15.50;67.70;;;;;;5014147;28;20448;-77
2022/04/23 14:15:01;;;;;;;1.20;1.20;;;15.50;67.30;;;;;;5013740;28;20476;-78
2022/04/23 14:17:29;;;;;;;1.20;1.20;;;15.40;67.70;;;;;;5013700;28;20955;-77
2022/04/23 14:19:56;;;;;;;1.07;1.07;;;15.40;67.60;;;;;;5013998;28;20483;-78
2022/04/23 14:22:23;;;;;;;1.10;1.10;;;15.20;67.40;;;;;;5013823;28;20900;-78
2022/04/23 14:24:49;;;;;;;1.00;1.00;;;15.10;68.30;;;;;;5013560;28;20979;-78
2022/04/23 14:27:17;;;;;;;2.70;1.30;;;15.10;67.90;;;;;;5013811;28;20512;-78
2022/04/23 14:29:43;;;;;;;1.10;1.10;;;14.90;68.40;;;;;;5013798;28;20448;-78
2022/04/23 14:32:10;;;;;;;1.20;1.10;;;15.00;68.90;;;;;;5013745;28;20440;-77
2022/04/23 14:34:39;;;;;;;1.00;1.00;;;15.10;68.30;;;;;;5013685;28;20518;-77
2022/04/23 14:37:05;;;;;;;1.20;1.20;;;15.10;68.30;;;;;;5013416;28;20848;-77
2022/04/23 14:39:32;;;;;;;1.10;1.00;;;15.10;68.70;;;;;;5013409;28;20936;-78
2022/04/23 14:41:59;;;;;;;1.00;1.00;;;15.20;68.50;;;;;;5013669;28;20486;-77
2022/04/23 14:44:26;;;;;;;1.03;1.03;;;15.20;67.60;;;;;;5013662;28;20579;-78
2022/04/23 14:46:53;;;;;;;1.00;1.00;;;15.10;68.40;;;;;;5013651;28;20456;-78
2022/04/23 14:49:20;;;;;;;1.17;1.17;;;15.10;68.10;;;;;;5013655;28;20488;-77
2022/04/23 14:54:33;;;;;;;0.93;0.93;;;15.00;68.70;;;;;;5013587;28;20454;-77
2022/04/23 14:57:00;;;;;;;1.00;1.00;;;14.90;68.70;;;;;;5013274;28;21013;-77
2022/04/23 14:59:27;;;;;;;1.20;1.20;;;14.80;69.10;;;;;;5013474;28;20456;-77
2022/04/23 15:01:54;;;;;;;0.90;0.90;;;14.80;69.40;;;;;;5013407;28;20484;-77
2022/04/23 15:04:22;;;;;;;1.13;1.10;;;14.90;69.30;;;;;;5013356;28;20468;-77
2022/04/23 15:06:50;;;;;;;1.03;1.03;;;14.90;69.60;;;;;;5013465;28;20518;-77
2022/04/23 15:09:17;;;;;;;1.30;1.20;;;15.00;69.20;;;;;;5013377;28;20543;-77
2022/04/23 15:11:45;;;;;;;1.10;1.10;;;15.10;69.00;;;;;;5013394;28;20502;-76
2022/04/23 15:14:11;;;;;;;1.13;1.13;;;15.10;68.90;;;;;;5114451;23;20542;-71
2022/04/23 15:16:38;;;;;;;1.17;1.17;;;15.20;69.10;;;;;;5013906;28;20875;-71
2022/04/23 15:19:05;;;;;;;1.30;1.30;;;15.40;68.40;;;;;;5016695;28;20935;-71
2022/04/23 15:21:32;;;;;;;1.60;1.50;;;15.30;68.10;;;;;;5016939;28;20497;-71
2022/04/23 15:24:00;;;;;;;1.17;1.17;;;15.20;68.30;;;;;;5016935;28;20475;-71
2022/04/23 15:26:26;;;;;;;1.33;1.23;;;15.30;69.00;;;;;;5016843;28;20506;-71
2022/04/23 15:28:53;;;;;;;1.20;1.20;;;15.40;68.30;;;;;;5016879;28;20455;-71
2022/04/23 15:31:20;;;;;;;1.20;1.20;;;15.60;68.30;;;;;;5016850;28;20455;-71
2022/04/23 15:33:46;;;;;;;1.00;1.00;;;15.60;67.60;;;;;;5016610;28;20447;-71
2022/04/23 15:36:13;;;;;;;1.10;1.10;;;15.60;67.90;;;;;;5016478;28;20884;-71
2022/04/23 15:38:40;;;;;;;1.10;1.10;;;15.60;67.70;;;;;;5016369;28;20978;-71
2022/04/23 15:41:08;;;;;;;1.03;1.03;;;15.50;67.60;;;;;;5016728;28;20456;-71
2022/04/23 15:43:34;;;;;;;1.43;1.43;;;15.50;67.40;;;;;;5016485;28;20530;-72
2022/04/23 15:46:01;;;;;;;1.17;1.17;;;15.50;67.20;;;;;;5016591;28;20444;-71
2022/04/23 15:48:29;;;;;;;1.27;1.27;;;15.40;67.70;;;;;;5016527;28;20443;-71
2022/04/23 15:50:56;;;;;;;1.20;1.20;;;15.30;67.90;;;;;;5016113;28;20936;-70
2022/04/23 15:53:22;;;;;;;1.30;1.20;;;15.30;68.20;;;;;;5016488;28;20448;-70
2022/04/23 15:55:49;;;;;;;1.10;1.10;;;15.60;67.90;;;;;;5016335;28;20460;-71
2022/04/23 15:58:17;;;;;;;1.33;1.17;;;15.70;67.40;;;;;;5016105;28;20458;-70
2022/04/23 16:00:44;;;;;;;1.20;1.20;;;15.80;67.20;;;;;;5016293;28;20452;-71
2022/04/23 16:03:26;;;;;;;1.47;1.40;;;15.80;66.90;;;;;;5016053;28;20479;-70
2022/04/23 16:05:52;;;;;;;1.30;1.30;;;16.00;67.00;;;;;;5016246;28;20470;-71
2022/04/23 16:08:19;;;;;;;1.50;1.40;;;16.20;65.70;;;;;;5016298;28;20895;-70
2022/04/23 16:10:46;;;;;;;1.30;1.30;;;15.80;66.20;;;;;;5016479;28;20448;-71
2022/04/23 16:13:12;;;;;;;1.40;1.40;;;15.50;67.50;;;;;;5015913;28;20444;-70
2022/04/23 16:15:40;;;;;;;1.30;1.30;;;15.60;67.70;;;;;;5015505;28;20484;-70
2022/04/23 16:18:07;;;;;;;1.20;1.20;;;15.60;67.80;;;;;;5016246;28;20448;-70
2022/04/23 16:20:34;;;;;;;1.40;1.40;;;15.50;67.20;;;;;;5015979;28;20448;-70
2022/04/23 16:23:00;;;;;;;1.57;1.47;;;15.50;67.90;;;;;;5015773;28;20492;-71
2022/04/23 16:25:28;;;;;;;1.27;1.27;;;15.50;67.60;;;;;;5015792;28;20464;-71
2022/04/23 16:27:55;;;;;;;1.20;1.20;;;15.50;67.90;;;;;;5015663;28;20484;-70
2022/04/23 16:30:21;;;;;;;1.80;1.70;;;15.40;68.10;;;;;;5016180;28;20538;-70
2022/04/23 16:32:49;;;;;;;1.43;1.40;;;15.30;68.40;;;;;;5015812;28;20447;-71
2022/04/23 16:35:16;;;;;;;2.63;2.53;;;15.20;68.50;;;;;;5015576;28;20468;-71
2022/04/23 16:48:41;;;;;;;1.70;1.60;;;15.30;68.90;;;;;;5015298;28;20467;-70
2022/04/23 16:51:08;;;;;;;1.80;1.70;;;15.40;68.10;;;;;;5015393;28;20448;-71
2022/04/23 16:53:35;;;;;;;2.03;1.93;;;15.20;68.40;;;;;;5015464;28;20510;-71
2022/04/23 16:56:02;;;;;;;1.70;1.63;;;15.20;68.70;;;;;;5015252;28;20448;-71